createdAt,value
2022-12-08T00:01:36.263Z,100359.69
2022-12-08T00:04:05.503Z,100371.25
2022-12-08T00:06:54.366Z,100365.97
2022-12-08T00:09:25.979Z,100367.63
2022-12-08T00:11:58.855Z,100364.50
2022-12-08T00:14:30.056Z,100364.44
2022-12-08T00:16:59.205Z,100374.00
2022-12-08T00:19:27.967Z,100367.53
2022-12-08T00:21:58.293Z,100366.81
2022-12-08T00:24:31.984Z,100369.31
2022-12-08T00:27:00.108Z,100375.50
2022-12-08T00:29:28.494Z,100374.31
2022-12-08T00:31:56.809Z,100371.97
2022-12-08T00:34:25.274Z,100371.47
2022-12-08T00:36:53.396Z,100367.88
2022-12-08T00:39:23.048Z,100378.47
2022-12-08T00:42:14.405Z,100374.97
2022-12-08T00:44:43.452Z,100374.84
2022-12-08T00:47:11.981Z,100374.75
2022-12-08T00:49:40.259Z,100370.19
2022-12-08T00:52:08.480Z,100371.41
2022-12-08T00:54:38.179Z,100369.91
2022-12-08T00:57:06.338Z,100372.47
2022-12-08T00:59:34.584Z,100375.13
2022-12-08T01:02:02.801Z,100370.47
2022-12-08T01:04:30.958Z,100366.00
2022-12-08T01:06:59.120Z,100363.38
2022-12-08T01:09:27.290Z,100371.66
2022-12-08T01:11:57.101Z,100374.56
2022-12-08T01:14:25.276Z,100370.97
2022-12-08T01:16:53.578Z,100379.50
2022-12-08T01:19:21.817Z,100390.53
2022-12-08T01:21:49.990Z,100385.53
2022-12-08T01:24:20.299Z,100388.56
2022-12-08T01:26:49.545Z,100384.13
2022-12-08T01:29:19.236Z,100379.19
2022-12-08T01:31:47.433Z,100381.38
2022-12-08T01:34:15.757Z,100375.53
2022-12-08T01:36:44.505Z,100375.59
2022-12-08T01:39:16.317Z,100377.69
2022-12-08T01:41:45.333Z,100375.78
2022-12-08T01:44:54.566Z,100377.09
2022-12-08T01:47:26.566Z,100372.34
2022-12-08T01:49:54.815Z,100378.81
2022-12-08T01:52:27.877Z,100371.94
2022-12-08T01:55:00.962Z,100368.31
2022-12-08T01:57:32.383Z,100374.38
2022-12-08T02:00:06.844Z,100366.69
2022-12-08T02:02:47.280Z,100362.53
2022-12-08T02:05:17.366Z,100351.69
2022-12-08T02:07:45.757Z,100358.69
2022-12-08T02:10:20.310Z,100348.16
2022-12-08T02:12:50.348Z,100346.47
2022-12-08T02:15:20.386Z,100348.16
2022-12-08T02:18:02.220Z,100340.53
2022-12-08T02:20:42.553Z,100332.94
2022-12-08T02:23:22.323Z,100331.56
2022-12-08T02:26:21.343Z,100334.13
2022-12-08T02:29:13.377Z,100326.16
2022-12-08T02:31:59.059Z,100323.66
2022-12-08T02:34:32.708Z,100317.66
2022-12-08T02:37:10.132Z,100321.78
2022-12-08T02:39:51.866Z,100321.47
2022-12-08T02:42:28.662Z,100325.06
2022-12-08T02:45:03.214Z,100319.66
2022-12-08T02:47:33.117Z,100320.91
2022-12-08T02:50:03.141Z,100321.53
2022-12-08T02:52:41.259Z,100318.16
2022-12-08T02:55:16.244Z,100316.28
2022-12-08T02:57:57.524Z,100307.69
2022-12-08T03:00:28.622Z,100302.06
2022-12-08T03:03:10.332Z,100290.56
2022-12-08T03:05:56.916Z,100292.34
2022-12-08T03:08:33.759Z,100281.47
2022-12-08T03:11:05.953Z,100271.69
2022-12-08T03:13:42.045Z,100273.84
2022-12-08T03:16:13.765Z,100283.53
2022-12-08T03:18:46.251Z,100271.81
2022-12-08T03:21:18.175Z,100267.41
2022-12-08T03:23:49.307Z,100262.91
2022-12-08T03:26:21.132Z,100267.75
2022-12-08T03:28:50.313Z,100260.19
2022-12-08T03:31:20.796Z,100258.06
2022-12-08T03:33:53.428Z,100261.25
2022-12-08T03:36:23.485Z,100257.16
2022-12-08T03:38:54.630Z,100257.59
2022-12-08T03:41:23.721Z,100245.38
2022-12-08T03:43:53.682Z,100247.59
2022-12-08T03:48:51.096Z,100239.94
2022-12-08T03:51:19.275Z,100240.66
2022-12-08T03:53:49.374Z,100232.56
2022-12-08T03:56:23.485Z,100228.78
2022-12-08T03:58:51.668Z,100226.03
2022-12-08T04:01:20.032Z,100217.53
2022-12-08T04:03:48.669Z,100210.91
2022-12-08T04:06:17.436Z,100209.84
2022-12-08T04:08:45.619Z,100214.28
2022-12-08T04:11:15.213Z,100212.06
2022-12-08T04:13:44.216Z,100200.47
2022-12-08T04:16:16.891Z,100197.22
2022-12-08T04:18:45.079Z,100204.31
2022-12-08T04:21:13.913Z,100203.28
2022-12-08T04:23:42.426Z,100192.81
2022-12-08T04:26:10.661Z,100194.91
2022-12-08T04:28:40.153Z,100191.53
2022-12-08T04:31:08.712Z,100193.91
2022-12-08T04:33:36.948Z,100193.09
2022-12-08T04:36:06.551Z,100193.94
2022-12-08T04:38:35.141Z,100191.88
2022-12-08T04:41:03.365Z,100192.38
2022-12-08T04:43:31.493Z,100185.34
2022-12-08T04:46:00.985Z,100194.16
2022-12-08T04:48:29.317Z,100188.00
2022-12-08T04:50:57.443Z,100184.00
2022-12-08T04:53:26.702Z,100176.16
2022-12-08T04:55:54.957Z,100183.44
2022-12-08T04:58:23.225Z,100173.44
2022-12-08T05:00:51.889Z,100168.59
2022-12-08T05:03:28.093Z,100172.03
2022-12-08T05:05:57.035Z,100174.53
2022-12-08T05:08:25.298Z,100173.38
2022-12-08T05:10:53.611Z,100172.09
2022-12-08T05:13:21.739Z,100163.22
2022-12-08T05:15:49.890Z,100166.88
2022-12-08T05:18:18.076Z,100173.97
2022-12-08T05:20:47.522Z,100167.34
2022-12-08T05:23:15.660Z,100166.63
2022-12-08T05:25:43.789Z,100170.22
2022-12-08T05:28:40.263Z,100156.25
2022-12-08T05:30:59.987Z,100159.72
2022-12-08T05:33:28.124Z,100158.50
2022-12-08T05:35:57.584Z,100154.84
2022-12-08T05:38:25.727Z,100161.19
2022-12-08T05:40:53.873Z,100158.72
2022-12-08T05:43:22.280Z,100162.19
2022-12-08T05:45:50.474Z,100170.84
2022-12-08T05:48:18.641Z,100166.34
2022-12-08T05:50:48.013Z,100167.41
2022-12-08T05:53:19.189Z,100174.53
2022-12-08T05:55:47.897Z,100170.22
2022-12-08T05:58:18.928Z,100175.34
2022-12-08T06:00:48.040Z,100172.63
2022-12-08T06:03:18.137Z,100161.75
2022-12-08T06:05:47.971Z,100171.09
2022-12-08T06:08:16.203Z,100180.88
2022-12-08T06:10:46.666Z,100176.78
2022-12-08T06:13:15.278Z,100188.56
2022-12-08T06:15:43.872Z,100194.34
2022-12-08T06:18:12.478Z,100193.34
2022-12-08T06:20:40.578Z,100187.63
2022-12-08T06:23:08.698Z,100200.63
2022-12-08T06:25:36.778Z,100199.69
2022-12-08T06:28:07.412Z,100202.25
2022-12-08T06:30:35.515Z,100199.00
2022-12-08T06:33:03.631Z,100202.00
2022-12-08T06:35:31.718Z,100202.72
2022-12-08T06:37:59.836Z,100201.19
2022-12-08T06:40:27.982Z,100199.09
2022-12-08T06:42:56.087Z,100205.13
2022-12-08T06:45:25.511Z,100212.53
2022-12-08T06:47:53.669Z,100201.38
2022-12-08T06:50:22.052Z,100190.13
2022-12-08T06:53:01.051Z,100191.06
2022-12-08T06:58:21.674Z,100187.34
2022-12-08T07:00:51.306Z,100188.28
2022-12-08T07:03:19.678Z,100185.09
2022-12-08T07:05:47.902Z,100177.53
2022-12-08T07:08:16.188Z,100190.69
2022-12-08T07:10:44.420Z,100190.94
2022-12-08T07:13:12.595Z,100197.94
2022-12-08T07:15:40.729Z,100190.47
2022-12-08T07:18:10.218Z,100198.94
2022-12-08T07:20:38.681Z,100199.88
2022-12-08T07:23:07.099Z,100203.75
2022-12-08T07:25:35.225Z,100201.38
2022-12-08T07:28:09.187Z,100202.94
2022-12-08T07:30:37.437Z,100199.34
2022-12-08T07:33:06.514Z,100202.63
2022-12-08T07:35:36.001Z,100196.28
2022-12-08T07:38:04.301Z,100196.03
2022-12-08T07:40:32.431Z,100205.47
2022-12-08T07:43:00.561Z,100209.75
2022-12-08T07:45:31.694Z,100210.13
2022-12-08T07:48:00.183Z,100205.66
2022-12-08T07:50:28.336Z,100199.34
2022-12-08T07:52:57.899Z,100201.97
2022-12-08T07:55:26.826Z,100200.94
2022-12-08T07:57:55.078Z,100202.91
2022-12-08T08:00:23.406Z,100201.28
2022-12-08T08:02:52.058Z,100206.38
2022-12-08T08:05:20.699Z,100202.47
2022-12-08T08:07:48.904Z,100206.81
2022-12-08T08:10:18.880Z,100209.63
2022-12-08T08:12:47.588Z,100206.84
2022-12-08T08:15:15.813Z,100219.91
2022-12-08T08:17:43.945Z,100220.78
2022-12-08T08:20:13.005Z,100221.66
2022-12-08T08:22:41.120Z,100222.56
2022-12-08T08:25:10.083Z,100221.50
2022-12-08T08:27:39.682Z,100215.91
2022-12-08T08:30:09.733Z,100207.22
2022-12-08T08:32:38.549Z,100211.38
2022-12-08T08:35:07.687Z,100217.78
2022-12-08T08:37:35.841Z,100217.19
2022-12-08T08:40:05.368Z,100211.94
2022-12-08T08:42:33.925Z,100215.19
2022-12-08T08:45:03.448Z,100204.63
2022-12-08T08:47:31.597Z,100199.91
2022-12-08T08:49:59.713Z,100208.03
2022-12-08T08:52:28.124Z,100203.13
2022-12-08T08:54:56.735Z,100211.03
2022-12-08T08:57:26.074Z,100215.53
2022-12-08T08:59:54.944Z,100211.94
2022-12-08T09:02:26.741Z,100207.56
2022-12-08T09:04:54.899Z,100209.59
2022-12-08T09:07:23.136Z,100207.81
2022-12-08T09:09:51.314Z,100215.88
2022-12-08T09:12:19.435Z,100214.75
2022-12-08T09:14:47.632Z,100215.53
2022-12-08T09:17:16.261Z,100220.75
2022-12-08T09:19:45.937Z,100209.88
2022-12-08T09:22:16.478Z,100209.53
2022-12-08T09:24:44.664Z,100218.94
2022-12-08T09:27:12.807Z,100206.38
2022-12-08T09:29:40.922Z,100197.72
2022-12-08T09:32:09.068Z,100194.78
2022-12-08T09:34:37.535Z,100187.47
2022-12-08T09:37:07.068Z,100177.63
2022-12-08T09:39:35.464Z,100172.34
2022-12-08T09:42:06.795Z,100163.97
2022-12-08T09:44:51.611Z,100162.50
2022-12-08T09:47:23.680Z,100165.69
2022-12-08T09:49:58.581Z,100165.91
2022-12-08T09:52:33.595Z,100160.91
2022-12-08T09:55:10.661Z,100162.75
2022-12-08T09:57:39.068Z,100152.69
2022-12-08T10:00:13.205Z,100147.59
2022-12-08T10:02:47.015Z,100154.81
2022-12-08T10:05:15.824Z,100153.28
2022-12-08T10:07:49.413Z,100145.31
2022-12-08T10:10:32.683Z,100142.94
2022-12-08T10:13:08.387Z,100137.34
2022-12-08T10:15:45.288Z,100135.56
2022-12-08T10:18:18.644Z,100132.25
2022-12-08T10:20:49.064Z,100131.41
2022-12-08T10:23:28.451Z,100131.06
2022-12-08T10:26:01.845Z,100128.69
2022-12-08T10:28:30.270Z,100117.31
2022-12-08T10:30:58.471Z,100128.50
2022-12-08T10:33:29.109Z,100126.00
2022-12-08T10:36:02.864Z,100125.28
2022-12-08T10:38:33.488Z,100128.00
2022-12-08T10:41:07.272Z,100122.47
2022-12-08T10:43:37.758Z,100128.22
2022-12-08T10:46:11.879Z,100125.97
2022-12-08T10:48:49.426Z,100120.00
2022-12-08T10:51:30.413Z,100125.25
2022-12-08T10:53:59.955Z,100117.88
2022-12-08T10:56:30.407Z,100119.81
2022-12-08T10:59:13.545Z,100113.31
2022-12-08T11:01:43.218Z,100109.16
2022-12-08T11:04:16.274Z,100105.31
2022-12-08T11:06:44.969Z,100110.28
2022-12-08T11:09:38.088Z,100103.19
2022-12-08T11:12:13.878Z,100102.09
2022-12-08T11:14:51.132Z,100099.03
2022-12-08T11:17:26.519Z,100100.34
2022-12-08T11:20:01.149Z,100096.81
2022-12-08T11:22:33.339Z,100097.06
2022-12-08T11:25:11.366Z,100084.69
2022-12-08T11:27:43.421Z,100087.03
2022-12-08T11:30:16.951Z,100078.81
2022-12-08T11:32:46.803Z,100077.44
2022-12-08T11:35:22.248Z,100073.59
2022-12-08T11:37:50.383Z,100080.44
2022-12-08T11:40:25.397Z,100073.34
2022-12-08T11:43:01.696Z,100079.03
2022-12-08T11:45:34.708Z,100072.91
2022-12-08T11:48:11.584Z,100072.88
2022-12-08T11:50:45.806Z,100077.31
2022-12-08T11:53:19.199Z,100074.44
2022-12-08T11:55:54.556Z,100072.03
2022-12-08T11:58:27.882Z,100072.75
2022-12-08T12:00:56.575Z,100073.66
2022-12-08T12:03:32.286Z,100072.47
2022-12-08T12:09:33.697Z,100070.63
2022-12-08T12:12:16.590Z,100074.66
2022-12-08T12:15:13.780Z,100080.47
2022-12-08T12:17:47.104Z,100079.75
2022-12-08T12:20:20.915Z,100080.09
2022-12-08T12:22:56.600Z,100068.22
2022-12-08T12:25:27.420Z,100072.84
2022-12-08T12:28:02.432Z,100075.91
2022-12-08T12:30:50.548Z,100072.44
2022-12-08T12:33:19.624Z,100076.22
2022-12-08T12:35:48.977Z,100073.06
2022-12-08T12:38:41.773Z,100071.56
2022-12-08T12:41:12.941Z,100073.75
2022-12-08T12:44:10.041Z,100080.22
2022-12-08T12:46:56.379Z,100080.88
2022-12-08T12:49:53.473Z,100075.50
2022-12-08T12:52:44.033Z,100068.09
2022-12-08T12:55:52.114Z,100086.13
2022-12-08T12:58:24.408Z,100077.97
2022-12-08T13:01:31.731Z,100086.63
2022-12-08T13:04:06.179Z,100092.41
2022-12-08T13:06:38.827Z,100086.69
2022-12-08T13:09:08.293Z,100107.03
2022-12-08T13:11:52.632Z,100099.88
2022-12-08T13:14:33.076Z,100099.25
2022-12-08T13:17:06.157Z,100095.19
2022-12-08T13:19:38.129Z,100097.44
2022-12-08T13:22:39.584Z,100099.81
2022-12-08T13:25:48.597Z,100103.03
2022-12-08T13:28:29.204Z,100104.41
2022-12-08T13:30:59.548Z,100095.97
2022-12-08T13:33:32.394Z,100110.22
2022-12-08T13:36:08.776Z,100105.56
2022-12-08T13:38:39.645Z,100107.78
2022-12-08T13:41:15.266Z,100102.59
2022-12-08T13:44:20.159Z,100111.44
2022-12-08T13:56:51.237Z,100113.41
2022-12-08T13:58:18.763Z,100111.38
2022-12-08T14:00:57.330Z,100122.16
2022-12-08T14:03:25.836Z,100124.47
2022-12-08T14:06:12.956Z,100120.84
2022-12-08T14:09:00.352Z,100121.19
2022-12-08T14:11:36.338Z,100117.88
2022-12-08T14:14:06.944Z,100124.81
2022-12-08T14:16:39.524Z,100133.00
2022-12-08T14:19:16.967Z,100123.44
2022-12-08T14:21:55.000Z,100126.16
2022-12-08T14:24:24.013Z,100133.13
2022-12-08T14:26:54.725Z,100125.84
2022-12-08T14:29:44.739Z,100128.69
2022-12-08T14:32:26.048Z,100128.47
2022-12-08T14:34:56.069Z,100125.31
2022-12-08T14:37:28.530Z,100126.75
2022-12-08T14:40:01.820Z,100130.97
2022-12-08T14:42:30.928Z,100127.75
2022-12-08T14:45:02.964Z,100132.19
2022-12-08T14:47:33.309Z,100131.81
2022-12-08T14:50:03.033Z,100141.53
2022-12-08T14:52:33.541Z,100134.28
2022-12-08T14:55:01.730Z,100128.28
2022-12-08T14:57:36.290Z,100122.50
2022-12-08T15:00:11.126Z,100125.00
2022-12-08T15:02:46.535Z,100125.13
2022-12-08T15:05:19.295Z,100121.09
2022-12-08T15:07:51.528Z,100121.81
2022-12-08T15:10:23.484Z,100119.81
2022-12-08T15:13:00.497Z,100127.28
2022-12-08T15:15:30.275Z,100124.34
2022-12-08T15:18:13.147Z,100132.94
2022-12-08T15:20:43.997Z,100135.97
2022-12-08T15:23:21.663Z,100151.44
2022-12-08T15:25:50.352Z,100153.44
2022-12-08T15:28:23.994Z,100162.38
2022-12-08T15:30:56.302Z,100170.72
2022-12-08T15:33:24.523Z,100175.72
2022-12-08T15:35:53.350Z,100168.56
2022-12-08T15:38:25.327Z,100177.59
2022-12-08T15:40:53.501Z,100184.47
2022-12-08T15:43:22.696Z,100189.03
2022-12-08T15:45:58.974Z,100184.81
2022-12-08T15:48:29.862Z,100174.66
2022-12-08T15:50:58.378Z,100167.28
2022-12-08T15:53:27.881Z,100163.44
2022-12-08T15:58:53.411Z,100154.25
2022-12-08T16:01:22.831Z,100153.41
2022-12-08T16:09:34.279Z,100147.00
2022-12-08T16:12:20.434Z,100144.31
2022-12-08T16:17:38.534Z,100142.78
2022-12-08T16:20:09.727Z,100149.88
2022-12-08T16:22:59.654Z,100157.34
2022-12-08T16:25:36.348Z,100156.34
2022-12-08T16:28:53.423Z,100149.72
2022-12-08T16:31:02.866Z,100158.22
2022-12-08T16:33:31.458Z,100158.78
2022-12-08T16:35:59.594Z,100153.00
2022-12-08T16:38:27.818Z,100153.22
2022-12-08T16:41:14.791Z,100165.19
2022-12-08T16:43:43.087Z,100160.63
2022-12-08T16:46:19.027Z,100155.59
2022-12-08T16:48:47.232Z,100160.84
2022-12-08T16:51:26.611Z,100161.25
2022-12-08T16:53:55.478Z,100163.03
2022-12-08T16:56:30.627Z,100163.03
2022-12-08T16:59:01.837Z,100163.84
2022-12-08T17:01:30.378Z,100165.13
2022-12-08T17:04:29.781Z,100158.25
2022-12-08T17:06:47.054Z,100158.66
2022-12-08T17:09:15.253Z,100154.97
2022-12-08T17:11:45.098Z,100155.72
2022-12-08T17:14:14.230Z,100160.59
2022-12-08T17:16:42.552Z,100164.69
2022-12-08T17:19:11.074Z,100156.78
2022-12-08T17:21:39.219Z,100169.25
2022-12-08T17:24:07.517Z,100173.94
2022-12-08T17:26:35.742Z,100175.53
2022-12-08T17:29:05.641Z,100172.09
2022-12-08T17:31:34.598Z,100172.41
2022-12-08T17:34:03.959Z,100169.28
2022-12-08T17:36:32.587Z,100173.59
2022-12-08T17:39:01.494Z,100174.19
2022-12-08T17:41:30.353Z,100183.06
2022-12-08T17:43:58.518Z,100183.91
2022-12-08T17:46:28.042Z,100179.66
2022-12-08T17:48:56.263Z,100171.19
2022-12-08T17:51:24.393Z,100166.06
2022-12-08T17:53:52.522Z,100171.56
2022-12-08T17:56:22.284Z,100174.06
2022-12-08T17:58:54.566Z,100173.91
2022-12-08T18:01:24.088Z,100175.63
2022-12-08T18:03:53.606Z,100178.31
2022-12-08T18:06:24.654Z,100175.06
2022-12-08T18:08:55.480Z,100178.91
2022-12-08T18:11:23.936Z,100176.59
2022-12-08T18:13:53.048Z,100176.97
2022-12-08T18:16:23.066Z,100177.94
2022-12-08T18:18:52.818Z,100177.19
2022-12-08T18:21:23.671Z,100181.03
2022-12-08T18:23:52.664Z,100183.44
2022-12-08T18:26:21.571Z,100178.22
2022-12-08T18:28:49.732Z,100172.78
2022-12-08T18:31:19.614Z,100172.44
2022-12-08T18:33:49.922Z,100169.31
2022-12-08T18:36:22.057Z,100171.97
2022-12-08T18:38:51.276Z,100163.31
2022-12-08T18:41:23.348Z,100160.84
2022-12-08T18:43:51.797Z,100162.63
2022-12-08T18:46:20.130Z,100169.94
2022-12-08T18:48:50.127Z,100166.47
2022-12-08T18:51:21.985Z,100169.59
2022-12-08T18:53:51.134Z,100176.06
2022-12-08T18:56:23.120Z,100180.38
2022-12-08T18:58:51.328Z,100177.63
2022-12-08T19:01:20.066Z,100178.25
2022-12-08T19:04:12.078Z,100187.78
2022-12-08T19:06:40.005Z,100199.03
2022-12-08T19:09:08.890Z,100190.38
2022-12-08T19:11:37.171Z,100191.34
2022-12-08T19:14:05.755Z,100193.19
2022-12-08T19:16:34.147Z,100193.09
2022-12-08T19:19:02.363Z,100186.88
2022-12-08T19:21:30.538Z,100193.75
2022-12-08T19:24:00.126Z,100193.75
2022-12-08T19:26:29.282Z,100197.19
2022-12-08T19:28:58.764Z,100197.50
2022-12-08T19:31:26.997Z,100196.81
2022-12-08T19:33:55.520Z,100203.63
2022-12-08T19:36:24.853Z,100199.28
2022-12-08T19:39:10.864Z,100198.50
2022-12-08T19:41:58.086Z,100209.00
2022-12-08T19:44:45.967Z,100204.91
2022-12-08T19:47:14.360Z,100212.59
2022-12-08T19:49:42.583Z,100210.00
2022-12-08T19:52:10.774Z,100221.28
2022-12-08T19:54:39.055Z,100229.81
2022-12-08T19:57:08.536Z,100222.50
2022-12-08T19:59:36.682Z,100230.63
2022-12-08T20:02:05.220Z,100240.63
2022-12-08T20:04:33.473Z,100234.78
2022-12-08T20:07:01.619Z,100239.00
2022-12-08T20:09:30.506Z,100243.22
2022-12-08T20:11:58.598Z,100257.94
2022-12-08T20:14:28.058Z,100240.09
2022-12-08T20:16:56.495Z,100249.19
2022-12-08T20:19:25.868Z,100247.97
2022-12-08T20:21:54.038Z,100251.47
2022-12-08T20:24:22.144Z,100250.97
2022-12-08T20:26:50.242Z,100249.91
2022-12-08T20:29:18.833Z,100240.28
2022-12-08T20:31:48.399Z,100247.34
2022-12-08T20:34:17.735Z,100248.84
2022-12-08T20:36:46.572Z,100245.97
2022-12-08T20:39:17.270Z,100252.09
2022-12-08T20:41:46.758Z,100253.88
2022-12-08T20:44:14.922Z,100248.84
2022-12-08T20:46:49.036Z,100259.25
2022-12-08T20:49:18.975Z,100251.50
2022-12-08T20:51:47.271Z,100259.09
2022-12-08T20:54:15.492Z,100263.91
2022-12-08T20:56:48.302Z,100263.91
2022-12-08T20:59:18.147Z,100261.81
2022-12-08T21:01:46.496Z,100268.81
2022-12-08T21:04:14.948Z,100269.81
2022-12-08T21:06:44.625Z,100270.78
2022-12-08T21:09:12.905Z,100265.28
2022-12-08T21:11:41.296Z,100270.25
2022-12-08T21:14:09.446Z,100283.66
2022-12-08T21:16:37.899Z,100287.00
2022-12-08T21:19:06.626Z,100288.16
2022-12-08T21:21:35.032Z,100288.22
2022-12-08T21:24:05.726Z,100277.19
2022-12-08T21:26:33.893Z,100277.84
2022-12-08T21:29:02.316Z,100276.16
2022-12-08T21:31:31.980Z,100280.13
2022-12-08T21:34:00.676Z,100277.47
2022-12-08T21:36:31.071Z,100276.66
2022-12-08T21:39:01.106Z,100277.75
2022-12-08T21:41:49.107Z,100284.59
2022-12-08T21:44:18.919Z,100285.78
2022-12-08T21:46:47.581Z,100289.84
2022-12-08T21:49:16.382Z,100287.22
2022-12-08T21:51:44.727Z,100289.94
2022-12-08T21:54:18.618Z,100284.69
2022-12-08T21:56:50.172Z,100290.19
2022-12-08T21:59:19.779Z,100300.84
2022-12-08T22:01:48.532Z,100291.16
2022-12-08T22:04:18.369Z,100296.34
2022-12-08T22:06:47.021Z,100298.97
2022-12-08T22:09:15.573Z,100308.44
2022-12-08T22:11:45.215Z,100304.88
2022-12-08T22:14:15.443Z,100305.81
2022-12-08T22:16:44.255Z,100309.16
2022-12-08T22:19:13.167Z,100298.41
2022-12-08T22:21:41.606Z,100298.34
2022-12-08T22:24:10.326Z,100306.19
2022-12-08T22:26:38.620Z,100304.88
2022-12-08T22:29:07.234Z,100305.66
2022-12-08T22:31:37.286Z,100304.06
2022-12-08T22:34:06.272Z,100301.38
2022-12-08T22:36:35.103Z,100297.06
2022-12-08T22:39:05.307Z,100295.91
2022-12-08T22:41:34.116Z,100289.00
2022-12-08T22:44:02.413Z,100299.25
2022-12-08T22:46:31.653Z,100304.81
2022-12-08T22:49:01.718Z,100302.41
2022-12-08T22:51:29.976Z,100305.97
2022-12-08T22:53:58.236Z,100302.44
2022-12-08T22:56:26.500Z,100308.59
2022-12-08T22:58:54.745Z,100298.47
2022-12-08T23:01:26.690Z,100304.13
2022-12-08T23:03:55.080Z,100302.31
2022-12-08T23:06:24.807Z,100312.66
2022-12-08T23:08:53.717Z,100309.63
2022-12-08T23:11:24.439Z,100308.00
2022-12-08T23:13:53.259Z,100309.69
2022-12-08T23:16:21.518Z,100307.97
2022-12-08T23:18:50.029Z,100298.31
2022-12-08T23:21:20.371Z,100294.81
2022-12-08T23:23:50.066Z,100294.97
2022-12-08T23:26:20.796Z,100286.56
2022-12-08T23:28:49.617Z,100283.84
2022-12-08T23:31:18.862Z,100277.66
2022-12-08T23:33:47.125Z,100287.34
2022-12-08T23:36:16.565Z,100285.69
2022-12-08T23:38:45.138Z,100279.66
2022-12-08T23:41:16.598Z,100281.41
2022-12-08T23:43:46.318Z,100272.66
2022-12-08T23:46:15.379Z,100281.63
2022-12-08T23:48:44.245Z,100283.66
2022-12-08T23:51:13.109Z,100289.69
2022-12-08T23:53:41.698Z,100283.59
2022-12-08T23:56:12.313Z,100286.16
2022-12-08T23:58:43.151Z,100285.09
